sensor_id;sensor_type;location;lat;lon;timestamp;temperature;humidity
23618;DHT22;18207;32.078;34.818;2023-01-19T00:02:14;20.90;39.30
23618;DHT22;18207;32.078;34.818;2023-01-19T00:04:45;20.90;39.30
23618;DHT22;18207;32.078;34.818;2023-01-19T00:07:17;20.90;39.30
23618;DHT22;18207;32.078;34.818;2023-01-19T00:09:46;20.90;39.30
23618;DHT22;18207;32.078;34.818;2023-01-19T00:12:17;20.90;39.30
23618;DHT22;18207;32.078;34.818;2023-01-19T00:14:47;20.90;39.30
23618;DHT22;18207;32.078;34.818;2023-01-19T00:17:17;20.90;39.30
23618;DHT22;18207;32.078;34.818;2023-01-19T00:19:48;20.90;39.30
23618;DHT22;18207;32.078;34.818;2023-01-19T00:22:20;20.90;39.20
23618;DHT22;18207;32.078;34.818;2023-01-19T00:24:50;20.90;39.20
23618;DHT22;18207;32.078;34.818;2023-01-19T00:27:21;20.90;39.20
23618;DHT22;18207;32.078;34.818;2023-01-19T00:29:51;20.90;39.10
23618;DHT22;18207;32.078;34.818;2023-01-19T00:32:22;20.90;39.10
23618;DHT22;18207;32.078;34.818;2023-01-19T00:34:53;20.90;39.10
23618;DHT22;18207;32.078;34.818;2023-01-19T00:37:27;20.90;39.10
23618;DHT22;18207;32.078;34.818;2023-01-19T00:39:57;20.90;39.10
23618;DHT22;18207;32.078;34.818;2023-01-19T00:42:28;20.90;39.10
23618;DHT22;18207;32.078;34.818;2023-01-19T00:45:15;20.90;39.00
23618;DHT22;18207;32.078;34.818;2023-01-19T00:47:47;20.90;39.00
23618;DHT22;18207;32.078;34.818;2023-01-19T00:50:24;20.90;39.00
23618;DHT22;18207;32.078;34.818;2023-01-19T00:52:58;20.80;38.90
23618;DHT22;18207;32.078;34.818;2023-01-19T00:55:31;20.90;39.00
23618;DHT22;18207;32.078;34.818;2023-01-19T00:58:01;20.90;38.90
23618;DHT22;18207;32.078;34.818;2023-01-19T01:00:31;20.80;38.90
23618;DHT22;18207;32.078;34.818;2023-01-19T01:03:02;20.80;38.80
23618;DHT22;18207;32.078;34.818;2023-01-19T01:05:33;20.80;38.80
23618;DHT22;18207;32.078;34.818;2023-01-19T01:08:05;20.80;38.90
23618;DHT22;18207;32.078;34.818;2023-01-19T01:10:35;20.80;38.90
23618;DHT22;18207;32.078;34.818;2023-01-19T01:13:05;20.80;38.90
23618;DHT22;18207;32.078;34.818;2023-01-19T01:15:49;20.80;38.80
23618;DHT22;18207;32.078;34.818;2023-01-19T01:18:20;20.80;38.80
23618;DHT22;18207;32.078;34.818;2023-01-19T01:20:50;20.80;38.80
23618;DHT22;18207;32.078;34.818;2023-01-19T01:23:24;20.70;38.90
23618;DHT22;18207;32.078;34.818;2023-01-19T01:25:56;20.70;38.70
23618;DHT22;18207;32.078;34.818;2023-01-19T01:28:27;20.70;38.70
23618;DHT22;18207;32.078;34.818;2023-01-19T01:30:58;20.70;38.70
23618;DHT22;18207;32.078;34.818;2023-01-19T01:33:28;20.70;38.70
23618;DHT22;18207;32.078;34.818;2023-01-19T01:36:08;20.70;38.70
23618;DHT22;18207;32.078;34.818;2023-01-19T01:38:41;20.60;38.60
23618;DHT22;18207;32.078;34.818;2023-01-19T01:41:11;20.60;38.70
23618;DHT22;18207;32.078;34.818;2023-01-19T01:43:44;20.60;38.70
23618;DHT22;18207;32.078;34.818;2023-01-19T01:46:16;20.60;38.70
23618;DHT22;18207;32.078;34.818;2023-01-19T01:48:51;20.60;38.70
23618;DHT22;18207;32.078;34.818;2023-01-19T01:51:30;20.60;38.70
23618;DHT22;18207;32.078;34.818;2023-01-19T01:54:11;20.60;38.70
23618;DHT22;18207;32.078;34.818;2023-01-19T01:56:46;20.60;38.60
23618;DHT22;18207;32.078;34.818;2023-01-19T01:59:20;20.60;38.60
23618;DHT22;18207;32.078;34.818;2023-01-19T02:02:00;20.60;38.60
23618;DHT22;18207;32.078;34.818;2023-01-19T02:04:52;20.60;38.60
23618;DHT22;18207;32.078;34.818;2023-01-19T02:07:32;20.60;38.50
23618;DHT22;18207;32.078;34.818;2023-01-19T02:10:29;20.60;38.50
23618;DHT22;18207;32.078;34.818;2023-01-19T02:13:17;20.60;38.50
23618;DHT22;18207;32.078;34.818;2023-01-19T02:15:50;20.60;38.50
23618;DHT22;18207;32.078;34.818;2023-01-19T02:18:29;20.50;38.40
23618;DHT22;18207;32.078;34.818;2023-01-19T02:21:08;20.50;38.40
23618;DHT22;18207;32.078;34.818;2023-01-19T02:23:44;20.50;38.50
23618;DHT22;18207;32.078;34.818;2023-01-19T02:26:19;20.50;38.50
23618;DHT22;18207;32.078;34.818;2023-01-19T02:28:55;20.50;38.40
23618;DHT22;18207;32.078;34.818;2023-01-19T02:31:29;20.40;38.40
23618;DHT22;18207;32.078;34.818;2023-01-19T02:34:02;20.40;38.40
23618;DHT22;18207;32.078;34.818;2023-01-19T02:36:36;20.40;38.50
23618;DHT22;18207;32.078;34.818;2023-01-19T02:39:12;20.40;38.40
23618;DHT22;18207;32.078;34.818;2023-01-19T02:41:49;20.40;38.40
23618;DHT22;18207;32.078;34.818;2023-01-19T02:44:23;20.40;38.50
23618;DHT22;18207;32.078;34.818;2023-01-19T02:46:56;20.40;38.40
23618;DHT22;18207;32.078;34.818;2023-01-19T02:49:27;20.40;38.50
23618;DHT22;18207;32.078;34.818;2023-01-19T02:51:58;20.40;38.40
23618;DHT22;18207;32.078;34.818;2023-01-19T02:54:39;20.40;38.50
23618;DHT22;18207;32.078;34.818;2023-01-19T02:57:38;20.40;38.50
23618;DHT22;18207;32.078;34.818;2023-01-19T03:00:25;20.30;38.40
23618;DHT22;18207;32.078;34.818;2023-01-19T03:03:15;20.30;38.30
23618;DHT22;18207;32.078;34.818;2023-01-19T03:06:00;20.30;38.20
23618;DHT22;18207;32.078;34.818;2023-01-19T03:08:43;20.30;38.20
23618;DHT22;18207;32.078;34.818;2023-01-19T03:11:24;20.30;38.30
23618;DHT22;18207;32.078;34.818;2023-01-19T03:14:06;20.20;38.30
23618;DHT22;18207;32.078;34.818;2023-01-19T03:16:43;20.20;38.30
23618;DHT22;18207;32.078;34.818;2023-01-19T03:19:20;20.20;38.30
23618;DHT22;18207;32.078;34.818;2023-01-19T03:21:57;20.20;38.40
23618;DHT22;18207;32.078;34.818;2023-01-19T03:24:31;20.20;38.40
23618;DHT22;18207;32.078;34.818;2023-01-19T03:27:09;20.10;38.40
23618;DHT22;18207;32.078;34.818;2023-01-19T03:29:45;20.10;38.40
23618;DHT22;18207;32.078;34.818;2023-01-19T03:32:22;20.10;38.40
23618;DHT22;18207;32.078;34.818;2023-01-19T03:35:00;20.10;38.40
23618;DHT22;18207;32.078;34.818;2023-01-19T03:37:37;20.10;38.40
23618;DHT22;18207;32.078;34.818;2023-01-19T03:40:11;20.10;38.40
23618;DHT22;18207;32.078;34.818;2023-01-19T03:42:44;20.10;38.40
23618;DHT22;18207;32.078;34.818;2023-01-19T03:45:16;20.10;38.40
23618;DHT22;18207;32.078;34.818;2023-01-19T03:47:48;20.10;38.50
23618;DHT22;18207;32.078;34.818;2023-01-19T03:50:23;20.10;38.50
23618;DHT22;18207;32.078;34.818;2023-01-19T03:53:06;20.10;38.40
23618;DHT22;18207;32.078;34.818;2023-01-19T03:55:39;20.10;39.00
23618;DHT22;18207;32.078;34.818;2023-01-19T03:58:13;20.10;39.00
23618;DHT22;18207;32.078;34.818;2023-01-19T04:00:44;20.00;38.30
23618;DHT22;18207;32.078;34.818;2023-01-19T04:03:16;20.00;38.40
23618;DHT22;18207;32.078;34.818;2023-01-19T04:05:47;20.00;38.40
23618;DHT22;18207;32.078;34.818;2023-01-19T04:08:17;20.00;38.40
23618;DHT22;18207;32.078;34.818;2023-01-19T04:10:47;19.90;38.40
23618;DHT22;18207;32.078;34.818;2023-01-19T04:13:20;19.90;38.40
23618;DHT22;18207;32.078;34.818;2023-01-19T04:15:50;19.90;38.40
23618;DHT22;18207;32.078;34.818;2023-01-19T04:18:21;19.90;38.50
23618;DHT22;18207;32.078;34.818;2023-01-19T04:20:51;19.90;38.50
23618;DHT22;18207;32.078;34.818;2023-01-19T04:23:22;19.90;38.50
23618;DHT22;18207;32.078;34.818;2023-01-19T04:25:56;19.90;38.50
23618;DHT22;18207;32.078;34.818;2023-01-19T04:28:28;19.80;38.40
23618;DHT22;18207;32.078;34.818;2023-01-19T04:30:58;19.90;38.50
23618;DHT22;18207;32.078;34.818;2023-01-19T04:33:28;19.80;38.40
23618;DHT22;18207;32.078;34.818;2023-01-19T04:35:59;19.80;38.50
23618;DHT22;18207;32.078;34.818;2023-01-19T04:38:30;19.80;38.50
23618;DHT22;18207;32.078;34.818;2023-01-19T04:41:01;19.80;38.50
23618;DHT22;18207;32.078;34.818;2023-01-19T04:43:33;19.80;38.60
23618;DHT22;18207;32.078;34.818;2023-01-19T04:46:04;19.80;38.50
23618;DHT22;18207;32.078;34.818;2023-01-19T04:48:35;19.80;38.60
23618;DHT22;18207;32.078;34.818;2023-01-19T04:51:08;19.90;38.70
23618;DHT22;18207;32.078;34.818;2023-01-19T04:53:38;19.80;38.60
23618;DHT22;18207;32.078;34.818;2023-01-19T04:56:09;19.90;38.70
23618;DHT22;18207;32.078;34.818;2023-01-19T04:58:41;19.90;38.60
23618;DHT22;18207;32.078;34.818;2023-01-19T05:01:11;19.80;38.50
23618;DHT22;18207;32.078;34.818;2023-01-19T05:03:41;19.90;38.60
23618;DHT22;18207;32.078;34.818;2023-01-19T05:06:12;19.90;38.60
23618;DHT22;18207;32.078;34.818;2023-01-19T05:08:41;19.90;38.60
23618;DHT22;18207;32.078;34.818;2023-01-19T05:11:11;19.90;38.60
23618;DHT22;18207;32.078;34.818;2023-01-19T05:13:44;19.90;38.50
23618;DHT22;18207;32.078;34.818;2023-01-19T05:16:17;19.90;38.50
23618;DHT22;18207;32.078;34.818;2023-01-19T05:18:47;19.90;38.50
23618;DHT22;18207;32.078;34.818;2023-01-19T05:21:17;19.90;38.50
23618;DHT22;18207;32.078;34.818;2023-01-19T05:23:48;20.00;38.80
23618;DHT22;18207;32.078;34.818;2023-01-19T05:26:18;20.10;39.10
23618;DHT22;18207;32.078;34.818;2023-01-19T05:28:50;20.20;39.50
23618;DHT22;18207;32.078;34.818;2023-01-19T05:31:21;20.40;39.70
23618;DHT22;18207;32.078;34.818;2023-01-19T05:33:51;20.60;39.90
23618;DHT22;18207;32.078;34.818;2023-01-19T05:36:21;20.80;39.80
23618;DHT22;18207;32.078;34.818;2023-01-19T05:38:51;21.00;39.60
23618;DHT22;18207;32.078;34.818;2023-01-19T05:41:21;21.20;39.30
23618;DHT22;18207;32.078;34.818;2023-01-19T05:43:52;21.30;38.90
23618;DHT22;18207;32.078;34.818;2023-01-19T05:46:23;21.30;38.70
23618;DHT22;18207;32.078;34.818;2023-01-19T05:48:53;21.40;38.50
23618;DHT22;18207;32.078;34.818;2023-01-19T05:51:23;21.40;38.30
23618;DHT22;18207;32.078;34.818;2023-01-19T05:53:58;21.30;38.20
23618;DHT22;18207;32.078;34.818;2023-01-19T05:56:29;21.30;38.10
23618;DHT22;18207;32.078;34.818;2023-01-19T05:59:01;21.30;38.10
23618;DHT22;18207;32.078;34.818;2023-01-19T06:01:32;21.30;38.10
23618;DHT22;18207;32.078;34.818;2023-01-19T06:04:06;21.20;38.00
23618;DHT22;18207;32.078;34.818;2023-01-19T06:06:36;21.20;38.10
23618;DHT22;18207;32.078;34.818;2023-01-19T06:09:06;21.20;38.10
23618;DHT22;18207;32.078;34.818;2023-01-19T06:11:37;21.20;38.30
23618;DHT22;18207;32.078;34.818;2023-01-19T06:14:10;21.30;38.70
23618;DHT22;18207;32.078;34.818;2023-01-19T06:16:41;21.40;39.10
23618;DHT22;18207;32.078;34.818;2023-01-19T06:19:11;21.60;39.70
23618;DHT22;18207;32.078;34.818;2023-01-19T06:21:41;21.80;40.00
23618;DHT22;18207;32.078;34.818;2023-01-19T06:24:16;22.20;40.40
23618;DHT22;18207;32.078;34.818;2023-01-19T06:26:47;22.50;40.60
23618;DHT22;18207;32.078;34.818;2023-01-19T06:29:20;23.00;40.80
23618;DHT22;18207;32.078;34.818;2023-01-19T06:31:51;23.40;40.80
23618;DHT22;18207;32.078;34.818;2023-01-19T06:34:22;23.80;41.40
23618;DHT22;18207;32.078;34.818;2023-01-19T06:36:55;24.30;40.70
23618;DHT22;18207;32.078;34.818;2023-01-19T06:39:26;24.70;40.50
23618;DHT22;18207;32.078;34.818;2023-01-19T06:41:56;25.10;40.40
23618;DHT22;18207;32.078;34.818;2023-01-19T06:44:29;25.50;40.10
23618;DHT22;18207;32.078;34.818;2023-01-19T06:46:59;25.90;39.80
23618;DHT22;18207;32.078;34.818;2023-01-19T06:49:42;26.30;39.40
23618;DHT22;18207;32.078;34.818;2023-01-19T06:52:12;26.70;39.10
23618;DHT22;18207;32.078;34.818;2023-01-19T06:54:44;27.00;38.90
23618;DHT22;18207;32.078;34.818;2023-01-19T06:57:15;27.40;38.60
23618;DHT22;18207;32.078;34.818;2023-01-19T06:59:47;27.70;38.30
23618;DHT22;18207;32.078;34.818;2023-01-19T07:02:18;28.00;38.00
23618;DHT22;18207;32.078;34.818;2023-01-19T07:04:54;28.30;37.70
23618;DHT22;18207;32.078;34.818;2023-01-19T07:07:25;28.60;37.30
23618;DHT22;18207;32.078;34.818;2023-01-19T07:09:55;28.90;37.00
23618;DHT22;18207;32.078;34.818;2023-01-19T07:12:26;29.20;36.80
23618;DHT22;18207;32.078;34.818;2023-01-19T07:14:58;29.40;36.60
23618;DHT22;18207;32.078;34.818;2023-01-19T07:17:29;29.60;36.20
23618;DHT22;18207;32.078;34.818;2023-01-19T07:20:00;29.90;36.00
23618;DHT22;18207;32.078;34.818;2023-01-19T07:22:30;30.10;35.70
23618;DHT22;18207;32.078;34.818;2023-01-19T07:25:01;30.40;35.50
23618;DHT22;18207;32.078;34.818;2023-01-19T07:27:31;30.60;35.30
23618;DHT22;18207;32.078;34.818;2023-01-19T07:30:05;30.80;35.00
23618;DHT22;18207;32.078;34.818;2023-01-19T07:32:36;31.10;34.70
23618;DHT22;18207;32.078;34.818;2023-01-19T07:35:09;31.30;34.40
23618;DHT22;18207;32.078;34.818;2023-01-19T07:37:41;31.50;34.20
23618;DHT22;18207;32.078;34.818;2023-01-19T07:40:12;31.70;34.10
23618;DHT22;18207;32.078;34.818;2023-01-19T07:42:45;31.90;33.70
23618;DHT22;18207;32.078;34.818;2023-01-19T07:45:19;32.10;33.20
23618;DHT22;18207;32.078;34.818;2023-01-19T07:47:50;32.30;33.20
23618;DHT22;18207;32.078;34.818;2023-01-19T07:50:21;32.40;33.10
23618;DHT22;18207;32.078;34.818;2023-01-19T07:52:54;32.60;32.80
23618;DHT22;18207;32.078;34.818;2023-01-19T07:55:26;32.80;32.40
23618;DHT22;18207;32.078;34.818;2023-01-19T07:57:56;33.00;32.20
23618;DHT22;18207;32.078;34.818;2023-01-19T08:00:28;33.20;32.10
23618;DHT22;18207;32.078;34.818;2023-01-19T08:03:00;33.30;31.90
23618;DHT22;18207;32.078;34.818;2023-01-19T08:05:33;33.50;31.70
23618;DHT22;18207;32.078;34.818;2023-01-19T08:08:04;33.70;31.50
23618;DHT22;18207;32.078;34.818;2023-01-19T08:10:35;33.80;31.30
23618;DHT22;18207;32.078;34.818;2023-01-19T08:13:05;34.10;31.10
23618;DHT22;18207;32.078;34.818;2023-01-19T08:15:39;34.20;30.90
23618;DHT22;18207;32.078;34.818;2023-01-19T08:18:10;34.30;30.60
23618;DHT22;18207;32.078;34.818;2023-01-19T08:20:42;34.50;30.40
23618;DHT22;18207;32.078;34.818;2023-01-19T08:23:13;34.70;30.30
23618;DHT22;18207;32.078;34.818;2023-01-19T08:25:45;34.80;30.10
23618;DHT22;18207;32.078;34.818;2023-01-19T08:28:16;35.00;29.90
23618;DHT22;18207;32.078;34.818;2023-01-19T08:30:49;35.20;29.80
23618;DHT22;18207;32.078;34.818;2023-01-19T08:33:24;35.40;29.50
23618;DHT22;18207;32.078;34.818;2023-01-19T08:35:54;35.60;29.50
23618;DHT22;18207;32.078;34.818;2023-01-19T08:38:24;35.80;29.50
23618;DHT22;18207;32.078;34.818;2023-01-19T08:40:54;36.00;29.50
23618;DHT22;18207;32.078;34.818;2023-01-19T08:43:25;36.20;29.30
23618;DHT22;18207;32.078;34.818;2023-01-19T08:45:57;36.50;29.40
23618;DHT22;18207;32.078;34.818;2023-01-19T08:48:28;36.70;29.10
23618;DHT22;18207;32.078;34.818;2023-01-19T08:50:59;36.90;29.00
23618;DHT22;18207;32.078;34.818;2023-01-19T08:53:29;37.10;28.60
23618;DHT22;18207;32.078;34.818;2023-01-19T08:55:59;37.20;28.30
23618;DHT22;18207;32.078;34.818;2023-01-19T08:58:30;37.30;27.70
23618;DHT22;18207;32.078;34.818;2023-01-19T09:01:02;37.20;27.40
23618;DHT22;18207;32.078;34.818;2023-01-19T09:03:33;37.00;27.10
23618;DHT22;18207;32.078;34.818;2023-01-19T09:06:05;36.80;26.80
23618;DHT22;18207;32.078;34.818;2023-01-19T09:08:35;36.60;26.40
23618;DHT22;18207;32.078;34.818;2023-01-19T09:11:08;36.30;26.00
23618;DHT22;18207;32.078;34.818;2023-01-19T09:13:40;35.90;25.80
23618;DHT22;18207;32.078;34.818;2023-01-19T09:16:12;35.40;25.60
23618;DHT22;18207;32.078;34.818;2023-01-19T09:18:42;35.10;25.70
23618;DHT22;18207;32.078;34.818;2023-01-19T09:21:13;34.70;25.70
23618;DHT22;18207;32.078;34.818;2023-01-19T09:23:43;34.30;25.70
23618;DHT22;18207;32.078;34.818;2023-01-19T09:26:13;34.00;25.70
23618;DHT22;18207;32.078;34.818;2023-01-19T09:28:44;33.60;25.60
23618;DHT22;18207;32.078;34.818;2023-01-19T09:31:16;33.30;25.80
23618;DHT22;18207;32.078;34.818;2023-01-19T09:33:46;33.00;25.60
23618;DHT22;18207;32.078;34.818;2023-01-19T09:36:16;32.70;25.90
23618;DHT22;18207;32.078;34.818;2023-01-19T09:38:47;32.50;26.10
23618;DHT22;18207;32.078;34.818;2023-01-19T09:41:19;32.30;26.20
23618;DHT22;18207;32.078;34.818;2023-01-19T09:43:55;32.10;26.20
23618;DHT22;18207;32.078;34.818;2023-01-19T09:46:35;31.90;26.30
23618;DHT22;18207;32.078;34.818;2023-01-19T09:49:12;31.70;26.10
23618;DHT22;18207;32.078;34.818;2023-01-19T09:51:46;31.50;26.20
23618;DHT22;18207;32.078;34.818;2023-01-19T09:54:22;31.40;26.20
23618;DHT22;18207;32.078;34.818;2023-01-19T09:56:57;31.20;26.40
23618;DHT22;18207;32.078;34.818;2023-01-19T09:59:29;31.00;26.20
23618;DHT22;18207;32.078;34.818;2023-01-19T10:02:23;30.90;26.20
23618;DHT22;18207;32.078;34.818;2023-01-19T10:05:01;30.70;26.00
23618;DHT22;18207;32.078;34.818;2023-01-19T10:07:43;30.60;26.40
23618;DHT22;18207;32.078;34.818;2023-01-19T10:10:25;30.50;26.40
23618;DHT22;18207;32.078;34.818;2023-01-19T10:13:13;30.30;26.40
23618;DHT22;18207;32.078;34.818;2023-01-19T10:16:13;30.10;26.10
23618;DHT22;18207;32.078;34.818;2023-01-19T10:18:58;30.00;26.10
23618;DHT22;18207;32.078;34.818;2023-01-19T10:21:36;29.90;26.10
23618;DHT22;18207;32.078;34.818;2023-01-19T10:24:17;29.70;26.10
23618;DHT22;18207;32.078;34.818;2023-01-19T10:26:53;29.60;26.00
23618;DHT22;18207;32.078;34.818;2023-01-19T10:29:27;29.40;26.00
23618;DHT22;18207;32.078;34.818;2023-01-19T10:32:05;29.30;26.00
23618;DHT22;18207;32.078;34.818;2023-01-19T10:34:40;29.20;26.10
23618;DHT22;18207;32.078;34.818;2023-01-19T10:37:19;29.10;26.30
23618;DHT22;18207;32.078;34.818;2023-01-19T10:39:59;29.00;26.20
23618;DHT22;18207;32.078;34.818;2023-01-19T10:42:47;28.90;26.20
23618;DHT22;18207;32.078;34.818;2023-01-19T10:45:20;28.80;26.20
23618;DHT22;18207;32.078;34.818;2023-01-19T10:47:54;28.70;26.10
23618;DHT22;18207;32.078;34.818;2023-01-19T10:50:31;28.60;26.10
23618;DHT22;18207;32.078;34.818;2023-01-19T10:53:04;28.50;26.00
23618;DHT22;18207;32.078;34.818;2023-01-19T10:55:37;28.40;26.00
23618;DHT22;18207;32.078;34.818;2023-01-19T10:58:26;28.30;25.90
23618;DHT22;18207;32.078;34.818;2023-01-19T11:01:12;28.20;25.70
23618;DHT22;18207;32.078;34.818;2023-01-19T11:03:45;28.20;25.70
23618;DHT22;18207;32.078;34.818;2023-01-19T11:06:32;28.10;25.90
23618;DHT22;18207;32.078;34.818;2023-01-19T11:09:14;28.00;25.70
23618;DHT22;18207;32.078;34.818;2023-01-19T11:11:48;28.00;25.80
23618;DHT22;18207;32.078;34.818;2023-01-19T11:14:22;27.90;25.80
23618;DHT22;18207;32.078;34.818;2023-01-19T11:16:55;27.90;25.90
23618;DHT22;18207;32.078;34.818;2023-01-19T11:19:28;27.80;25.80
23618;DHT22;18207;32.078;34.818;2023-01-19T11:22:16;27.80;26.00
23618;DHT22;18207;32.078;34.818;2023-01-19T11:24:49;27.70;25.90
23618;DHT22;18207;32.078;34.818;2023-01-19T11:27:20;27.60;26.10
23618;DHT22;18207;32.078;34.818;2023-01-19T11:29:59;27.60;26.10
23618;DHT22;18207;32.078;34.818;2023-01-19T11:32:36;27.60;26.10
23618;DHT22;18207;32.078;34.818;2023-01-19T11:35:27;27.50;26.20
23618;DHT22;18207;32.078;34.818;2023-01-19T11:38:15;27.40;25.90
23618;DHT22;18207;32.078;34.818;2023-01-19T11:40:54;27.40;25.90
23618;DHT22;18207;32.078;34.818;2023-01-19T11:43:28;27.30;25.80
23618;DHT22;18207;32.078;34.818;2023-01-19T11:46:15;27.30;25.90
23618;DHT22;18207;32.078;34.818;2023-01-19T11:48:50;27.20;25.80
23618;DHT22;18207;32.078;34.818;2023-01-19T11:51:33;27.20;25.70
23618;DHT22;18207;32.078;34.818;2023-01-19T11:54:18;27.20;25.80
23618;DHT22;18207;32.078;34.818;2023-01-19T11:56:53;27.20;25.60
23618;DHT22;18207;32.078;34.818;2023-01-19T11:59:27;27.10;25.70
23618;DHT22;18207;32.078;34.818;2023-01-19T12:02:00;27.10;25.70
23618;DHT22;18207;32.078;34.818;2023-01-19T12:04:36;27.00;25.70
23618;DHT22;18207;32.078;34.818;2023-01-19T12:07:11;27.00;25.60
23618;DHT22;18207;32.078;34.818;2023-01-19T12:09:51;27.00;25.60
23618;DHT22;18207;32.078;34.818;2023-01-19T12:12:27;26.90;25.50
23618;DHT22;18207;32.078;34.818;2023-01-19T12:15:02;26.90;25.40
23618;DHT22;18207;32.078;34.818;2023-01-19T12:17:42;26.90;25.30
23618;DHT22;18207;32.078;34.818;2023-01-19T12:20:23;26.90;25.30
23618;DHT22;18207;32.078;34.818;2023-01-19T12:23:06;26.90;25.30
23618;DHT22;18207;32.078;34.818;2023-01-19T12:26:07;26.80;25.20
23618;DHT22;18207;32.078;34.818;2023-01-19T12:29:07;26.80;25.10
23618;DHT22;18207;32.078;34.818;2023-01-19T12:31:42;26.80;25.30
23618;DHT22;18207;32.078;34.818;2023-01-19T12:34:37;26.70;25.30
23618;DHT22;18207;32.078;34.818;2023-01-19T12:37:29;26.70;25.10
23618;DHT22;18207;32.078;34.818;2023-01-19T12:40:18;26.70;25.10
23618;DHT22;18207;32.078;34.818;2023-01-19T12:42:59;26.70;25.20
23618;DHT22;18207;32.078;34.818;2023-01-19T12:45:33;26.60;25.20
23618;DHT22;18207;32.078;34.818;2023-01-19T12:48:23;26.70;25.20
23618;DHT22;18207;32.078;34.818;2023-01-19T12:50:55;26.60;24.90
23618;DHT22;18207;32.078;34.818;2023-01-19T12:53:26;26.60;25.20
23618;DHT22;18207;32.078;34.818;2023-01-19T12:55:58;26.50;25.20
23618;DHT22;18207;32.078;34.818;2023-01-19T12:58:34;26.60;25.20
23618;DHT22;18207;32.078;34.818;2023-01-19T13:01:13;26.50;25.10
23618;DHT22;18207;32.078;34.818;2023-01-19T13:03:59;26.50;25.00
23618;DHT22;18207;32.078;34.818;2023-01-19T13:09:45;26.40;24.90
23618;DHT22;18207;32.078;34.818;2023-01-19T13:12:20;26.50;25.00
23618;DHT22;18207;32.078;34.818;2023-01-19T13:15:31;26.40;24.90
23618;DHT22;18207;32.078;34.818;2023-01-19T13:18:04;26.40;24.80
23618;DHT22;18207;32.078;34.818;2023-01-19T13:20:43;26.40;25.00
23618;DHT22;18207;32.078;34.818;2023-01-19T13:23:24;26.40;25.00
23618;DHT22;18207;32.078;34.818;2023-01-19T13:26:04;26.30;24.90
23618;DHT22;18207;32.078;34.818;2023-01-19T13:28:39;26.30;24.90
23618;DHT22;18207;32.078;34.818;2023-01-19T13:31:14;26.30;24.90
23618;DHT22;18207;32.078;34.818;2023-01-19T13:33:48;26.30;24.90
23618;DHT22;18207;32.078;34.818;2023-01-19T13:36:24;26.30;24.80
23618;DHT22;18207;32.078;34.818;2023-01-19T13:39:00;26.30;24.80
23618;DHT22;18207;32.078;34.818;2023-01-19T13:41:37;26.30;24.80
23618;DHT22;18207;32.078;34.818;2023-01-19T13:44:13;26.30;24.80
23618;DHT22;18207;32.078;34.818;2023-01-19T13:46:52;26.20;24.80
23618;DHT22;18207;32.078;34.818;2023-01-19T13:49:28;26.20;24.80
23618;DHT22;18207;32.078;34.818;2023-01-19T13:52:19;26.20;24.80
23618;DHT22;18207;32.078;34.818;2023-01-19T13:54:52;26.10;24.60
23618;DHT22;18207;32.078;34.818;2023-01-19T13:57:29;26.10;24.80
23618;DHT22;18207;32.078;34.818;2023-01-19T14:00:04;26.10;24.80
23618;DHT22;18207;32.078;34.818;2023-01-19T14:02:54;26.10;24.80
23618;DHT22;18207;32.078;34.818;2023-01-19T14:05:28;26.10;24.70
23618;DHT22;18207;32.078;34.818;2023-01-19T14:08:02;26.10;24.80
23618;DHT22;18207;32.078;34.818;2023-01-19T14:10:36;26.00;24.70
23618;DHT22;18207;32.078;34.818;2023-01-19T14:13:14;26.10;24.80
23618;DHT22;18207;32.078;34.818;2023-01-19T14:15:47;26.00;24.70
23618;DHT22;18207;32.078;34.818;2023-01-19T14:18:27;26.00;24.70
23618;DHT22;18207;32.078;34.818;2023-01-19T14:21:00;26.00;24.70
23618;DHT22;18207;32.078;34.818;2023-01-19T14:23:44;26.00;24.80
23618;DHT22;18207;32.078;34.818;2023-01-19T14:26:38;26.00;24.70
23618;DHT22;18207;32.078;34.818;2023-01-19T14:29:17;26.00;24.80
23618;DHT22;18207;32.078;34.818;2023-01-19T14:32:04;26.00;24.80
23618;DHT22;18207;32.078;34.818;2023-01-19T14:34:43;25.90;24.80
23618;DHT22;18207;32.078;34.818;2023-01-19T14:37:20;25.90;24.90
23618;DHT22;18207;32.078;34.818;2023-01-19T14:39:56;25.90;25.00
23618;DHT22;18207;32.078;34.818;2023-01-19T14:42:32;25.90;25.10
23618;DHT22;18207;32.078;34.818;2023-01-19T14:45:15;25.80;25.00
23618;DHT22;18207;32.078;34.818;2023-01-19T14:47:53;25.80;25.10
23618;DHT22;18207;32.078;34.818;2023-01-19T14:50:29;25.80;25.10
23618;DHT22;18207;32.078;34.818;2023-01-19T14:53:04;25.80;25.20
23618;DHT22;18207;32.078;34.818;2023-01-19T14:55:42;25.80;25.20
23618;DHT22;18207;32.078;34.818;2023-01-19T14:58:18;25.70;25.20
23618;DHT22;18207;32.078;34.818;2023-01-19T15:00:49;25.70;25.20
23618;DHT22;18207;32.078;34.818;2023-01-19T15:03:22;25.70;25.20
23618;DHT22;18207;32.078;34.818;2023-01-19T15:06:13;25.60;25.20
23618;DHT22;18207;32.078;34.818;2023-01-19T15:08:46;25.60;25.30
23618;DHT22;18207;32.078;34.818;2023-01-19T15:11:22;25.60;25.30
23618;DHT22;18207;32.078;34.818;2023-01-19T15:13:55;25.60;25.30
23618;DHT22;18207;32.078;34.818;2023-01-19T15:16:28;25.60;25.40
23618;DHT22;18207;32.078;34.818;2023-01-19T15:19:09;25.50;25.40
23618;DHT22;18207;32.078;34.818;2023-01-19T15:21:43;25.50;25.40
23618;DHT22;18207;32.078;34.818;2023-01-19T15:24:13;25.50;25.50
23618;DHT22;18207;32.078;34.818;2023-01-19T15:26:44;25.40;25.50
23618;DHT22;18207;32.078;34.818;2023-01-19T15:29:22;25.40;25.50
23618;DHT22;18207;32.078;34.818;2023-01-19T15:31:53;25.40;25.50
23618;DHT22;18207;32.078;34.818;2023-01-19T15:34:24;25.30;25.50
23618;DHT22;18207;32.078;34.818;2023-01-19T15:36:56;25.40;25.60
23618;DHT22;18207;32.078;34.818;2023-01-19T15:39:26;25.30;25.60
23618;DHT22;18207;32.078;34.818;2023-01-19T15:41:57;25.30;25.60
23618;DHT22;18207;32.078;34.818;2023-01-19T15:44:27;25.30;25.70
23618;DHT22;18207;32.078;34.818;2023-01-19T15:46:58;25.20;25.70
23618;DHT22;18207;32.078;34.818;2023-01-19T15:49:28;25.20;25.70
23618;DHT22;18207;32.078;34.818;2023-01-19T15:52:00;25.20;25.70
23618;DHT22;18207;32.078;34.818;2023-01-19T15:54:30;25.20;25.70
23618;DHT22;18207;32.078;34.818;2023-01-19T15:57:01;25.20;25.70
23618;DHT22;18207;32.078;34.818;2023-01-19T15:59:32;25.10;25.70
23618;DHT22;18207;32.078;34.818;2023-01-19T16:02:02;25.10;25.70
23618;DHT22;18207;32.078;34.818;2023-01-19T16:04:32;25.10;25.70
23618;DHT22;18207;32.078;34.818;2023-01-19T16:07:05;25.10;25.80